Time;durP1;ratioP1;P1;durP2;ratioP2;P2;SDS_P1;SDS_P2;PMS_P1;PMS_P2;Temp;Humidity;BMP_temperature;BMP_pressure;BME280_temperature;BME280_humidity;BME280_pressure;Samples;Min_cycle;Max_cycle;Signal;HPM_P1;HPM_P2
2023/09/15 00:01:24;;;;;;;7.47;3.40;;;;;;;;;;4900155;29;20047;-79
2023/09/15 00:03:58;;;;;;;12.73;3.92;;;;;;;;;;4903176;29;20059;-78
2023/09/15 00:06:31;;;;;;;8.82;3.25;;;;;;;;;;4902611;29;20045;-78
2023/09/15 09:20:14;;;;;;;17.77;5.18;;;;;;;;;;6073270;23;20021;31
2023/09/15 09:22:48;;;;;;;10.48;4.55;;;;;;;;;;4914551;29;20390;-80
2023/09/15 09:25:39;;;;;;;10.32;4.40;;;;;;;;;;4918979;29;20114;-80
2023/09/15 09:28:11;;;;;;;15.88;5.10;;;;;;;;;;4902628;29;20415;-78
2023/09/15 09:30:45;;;;;;;14.13;5.43;;;;;;;;;;4918681;29;20045;-78
2023/09/15 09:33:23;;;;;;;12.20;4.50;;;;;;;;;;4920171;29;20052;-79
2023/09/15 09:35:55;;;;;;;13.48;4.10;;;;;;;;;;4920055;29;20059;-78
2023/09/15 09:38:28;;;;;;;11.65;4.43;;;;;;;;;;4919831;29;20044;-77
2023/09/15 09:40:59;;;;;;;9.00;4.18;;;;;;;;;;4902359;29;20063;-80
2023/09/15 09:43:30;;;;;;;14.50;4.53;;;;;;;;;;4903582;29;20048;-81
2023/09/15 09:46:03;;;;;;;11.57;4.22;;;;;;;;;;4920310;29;20052;-82
2023/09/15 09:48:37;;;;;;;14.20;4.38;;;;;;;;;;4903421;29;20048;-79
2023/09/15 09:51:09;;;;;;;10.13;3.60;;;;;;;;;;4920027;29;20044;-80
2023/09/15 09:53:39;;;;;;;11.38;4.25;;;;;;;;;;4919994;29;20048;-80
2023/09/15 09:56:10;;;;;;;14.73;4.93;;;;;;;;;;4919652;29;20052;-79
2023/09/15 09:58:41;;;;;;;13.25;4.70;;;;;;;;;;4919859;29;20071;-82
2023/09/15 10:01:11;;;;;;;13.50;4.85;;;;;;;;;;4902213;29;20071;-79
2023/09/15 10:03:42;;;;;;;12.07;4.65;;;;;;;;;;4903515;29;20052;-80
2023/09/15 10:06:13;;;;;;;12.85;5.32;;;;;;;;;;4919497;29;20059;-81
2023/09/15 10:08:46;;;;;;;12.15;5.05;;;;;;;;;;4919997;29;20055;-79
2023/09/15 10:11:18;;;;;;;14.48;5.45;;;;;;;;;;4919130;29;20063;-79
2023/09/15 10:13:52;;;;;;;12.25;5.15;;;;;;;;;;4919618;29;20055;-81
2023/09/15 10:16:23;;;;;;;12.75;5.25;;;;;;;;;;4919964;29;20480;-79
2023/09/15 10:18:57;;;;;;;15.20;5.63;;;;;;;;;;4901688;29;20056;-79
2023/09/15 10:21:34;;;;;;;20.38;7.53;;;;;;;;;;4919053;29;20063;-79
2023/09/15 10:24:06;;;;;;;18.63;7.25;;;;;;;;;;4919041;29;20067;-79
2023/09/15 10:26:43;;;;;;;16.10;6.70;;;;;;;;;;4919262;29;20048;-80
2023/09/15 10:29:15;;;;;;;17.90;6.85;;;;;;;;;;4919375;29;20491;-81
2023/09/15 10:31:46;;;;;;;18.88;7.60;;;;;;;;;;4918683;29;20059;-83
2023/09/15 10:34:17;;;;;;;16.00;6.30;;;;;;;;;;4918800;29;20047;-79
2023/09/15 10:36:50;;;;;;;18.83;7.40;;;;;;;;;;4916486;29;20530;-80
2023/09/15 10:39:21;;;;;;;16.92;7.38;;;;;;;;;;4903063;29;20377;-79
2023/09/15 10:41:55;;;;;;;14.02;6.53;;;;;;;;;;4901968;29;20056;-81
2023/09/15 10:44:30;;;;;;;11.60;5.78;;;;;;;;;;4917822;29;20045;-80
2023/09/15 10:47:16;;;;;;;15.15;6.40;;;;;;;;;;4918642;29;20388;-80
2023/09/15 10:49:54;;;;;;;12.65;5.38;;;;;;;;;;4916423;29;20044;-82
2023/09/15 10:52:33;;;;;;;11.30;6.53;;;;;;;;;;4916425;29;20407;-81
2023/09/15 10:55:08;;;;;;;13.07;5.38;;;;;;;;;;4917781;29;20055;-80
2023/09/15 10:57:40;;;;;;;12.20;5.20;;;;;;;;;;4916354;29;20052;-81
2023/09/15 11:00:13;;;;;;;14.23;5.60;;;;;;;;;;4917247;29;20154;-80
2023/09/15 11:02:46;;;;;;;10.63;4.82;;;;;;;;;;4917023;29;20052;-81
2023/09/15 11:05:20;;;;;;;10.13;4.47;;;;;;;;;;4899844;29;20059;-80
2023/09/15 11:07:53;;;;;;;10.27;4.43;;;;;;;;;;4917306;29;20052;-81
2023/09/15 11:10:35;;;;;;;11.05;4.38;;;;;;;;;;4917445;29;20056;-80
2023/09/15 11:13:08;;;;;;;10.05;3.47;;;;;;;;;;4917474;29;20051;-80
2023/09/15 11:15:40;;;;;;;9.05;3.53;;;;;;;;;;4900025;29;20056;-80
2023/09/15 11:18:13;;;;;;;8.35;3.67;;;;;;;;;;4917242;29;20063;-80
2023/09/15 11:20:45;;;;;;;7.05;3.17;;;;;;;;;;4916991;29;20071;-80
2023/09/15 11:23:17;;;;;;;6.13;2.67;;;;;;;;;;4917098;29;20051;-78
2023/09/15 11:26:02;;;;;;;5.10;2.40;;;;;;;;;;4900370;29;20056;-78
2023/09/15 11:28:46;;;;;;;6.03;2.47;;;;;;;;;;4914559;29;20079;-78
2023/09/15 11:31:17;;;;;;;4.43;2.42;;;;;;;;;;4914324;29;20499;-78
2023/09/15 11:33:48;;;;;;;6.03;2.40;;;;;;;;;;4898229;29;20948;-78
2023/09/15 11:36:25;;;;;;;3.60;1.70;;;;;;;;;;4915740;29;20132;-79
2023/09/15 11:38:57;;;;;;;5.65;1.90;;;;;;;;;;4916037;29;20436;-79
2023/09/15 11:41:32;;;;;;;6.47;2.20;;;;;;;;;;4916221;29;20048;-81
2023/09/15 11:44:06;;;;;;;4.10;1.88;;;;;;;;;;4916519;29;20051;-78
2023/09/15 11:46:40;;;;;;;3.75;1.63;;;;;;;;;;4916807;29;20048;-77
2023/09/15 11:49:11;;;;;;;7.03;1.90;;;;;;;;;;4939437;29;20024;-79
2023/09/15 11:51:42;;;;;;;3.90;1.60;;;;;;;;;;4922631;29;20044;-77
2023/09/15 11:54:14;;;;;;;3.28;1.60;;;;;;;;;;4939179;29;20032;-78
2023/09/15 11:56:47;;;;;;;3.33;1.40;;;;;;;;;;4940823;29;20036;-80
2023/09/15 11:59:20;;;;;;;3.40;1.92;;;;;;;;;;4920393;29;20058;-80
2023/09/15 12:01:54;;;;;;;4.68;1.95;;;;;;;;;;4916670;29;20055;-78
2023/09/15 12:04:27;;;;;;;4.63;1.35;;;;;;;;;;4916355;29;20527;-78
2023/09/15 12:07:01;;;;;;;5.97;1.85;;;;;;;;;;4900176;29;20065;-80
2023/09/15 12:09:34;;;;;;;4.03;1.42;;;;;;;;;;4898987;29;20125;-81
2023/09/15 12:12:05;;;;;;;5.47;1.70;;;;;;;;;;4916413;29;20044;-79
2023/09/15 12:14:42;;;;;;;8.63;1.60;;;;;;;;;;4899990;29;20048;-78
2023/09/15 12:17:17;;;;;;;4.75;1.63;;;;;;;;;;4915715;29;20052;-79
2023/09/15 12:19:59;;;;;;;6.85;1.23;;;;;;;;;;4915913;29;20048;-78
2023/09/15 12:22:41;;;;;;;3.67;1.50;;;;;;;;;;4915615;29;20056;-79
2023/09/15 12:25:16;;;;;;;3.92;2.20;;;;;;;;;;4915640;29;20415;-79
2023/09/15 12:27:47;;;;;;;3.65;1.73;;;;;;;;;;4914327;29;20055;-79
2023/09/15 12:30:20;;;;;;;6.18;2.58;;;;;;;;;;4898113;29;20086;-81
2023/09/15 12:32:53;;;;;;;8.82;2.63;;;;;;;;;;4915987;29;20060;-77
2023/09/15 12:35:24;;;;;;;5.35;2.38;;;;;;;;;;4913560;29;20504;-78
2023/09/15 12:37:56;;;;;;;;;;;;;;;;;;4916095;29;20060;-82
2023/09/15 12:40:26;;;;;;;8.52;3.25;;;;;;;;;;4913995;29;19930;-78
2023/09/15 12:42:57;;;;;;;7.18;2.72;;;;;;;;;;4915529;29;20052;-79
2023/09/15 12:45:27;;;;;;;7.90;3.10;;;;;;;;;;4913241;29;20495;-79
2023/09/15 12:48:00;;;;;;;4.55;2.22;;;;;;;;;;4915577;29;20075;-78
2023/09/15 12:50:34;;;;;;;7.63;3.13;;;;;;;;;;4915363;29;20504;-78
2023/09/15 12:53:04;;;;;;;8.18;3.15;;;;;;;;;;4914228;29;20052;-78
2023/09/15 12:55:38;;;;;;;7.78;3.42;;;;;;;;;;4913678;29;20423;-79
2023/09/15 12:58:11;;;;;;;6.03;2.50;;;;;;;;;;4915182;29;20052;-79
2023/09/15 13:00:48;;;;;;;8.05;3.30;;;;;;;;;;4918277;29;20051;-80
2023/09/15 13:03:21;;;;;;;11.45;5.25;;;;;;;;;;4919695;29;20055;-81
2023/09/15 13:05:56;;;;;;;7.85;2.78;;;;;;;;;;4902231;29;20045;-80
2023/09/15 13:08:29;;;;;;;6.90;3.42;;;;;;;;;;4919084;29;20407;-80
2023/09/15 13:11:00;;;;;;;5.53;2.35;;;;;;;;;;4918492;29;20055;-79
2023/09/15 13:13:30;;;;;;;9.30;3.40;;;;;;;;;;4917936;29;20052;-79
2023/09/15 13:16:01;;;;;;;7.90;3.47;;;;;;;;;;4919563;29;20052;-79
2023/09/15 13:18:32;;;;;;;6.88;3.67;;;;;;;;;;4917782;29;20052;-78
2023/09/15 13:21:07;;;;;;;7.88;2.90;;;;;;;;;;4917483;29;20407;-78
2023/09/15 13:23:39;;;;;;;4.95;2.15;;;;;;;;;;4919224;29;20074;-77
2023/09/15 13:26:11;;;;;;;5.13;2.20;;;;;;;;;;4918694;29;20043;-77
2023/09/15 13:28:42;;;;;;;6.07;2.00;;;;;;;;;;4919468;29;20060;-79
2023/09/15 13:31:16;;;;;;;4.85;1.80;;;;;;;;;;4918594;29;20415;-78
2023/09/15 13:33:49;;;;;;;4.70;1.40;;;;;;;;;;4918654;29;20079;-80
2023/09/15 13:36:23;;;;;;;4.00;1.83;;;;;;;;;;4918591;29;20063;-79
2023/09/15 13:38:54;;;;;;;8.02;2.28;;;;;;;;;;4918755;29;20048;-80
2023/09/15 13:41:28;;;;;;;5.80;2.13;;;;;;;;;;4927600;29;20060;-77
2023/09/15 13:43:58;;;;;;;6.57;2.20;;;;;;;;;;4918926;29;20055;-81
2023/09/15 13:46:29;;;;;;;4.72;1.80;;;;;;;;;;4919065;29;20471;-79
2023/09/15 13:49:02;;;;;;;4.45;2.08;;;;;;;;;;4919278;29;20075;-79
2023/09/15 13:51:36;;;;;;;7.00;3.03;;;;;;;;;;4917717;29;20060;-78
2023/09/15 13:54:11;;;;;;;8.38;2.63;;;;;;;;;;4918800;29;20047;-81
2023/09/15 13:56:41;;;;;;;4.03;1.80;;;;;;;;;;4918930;29;20058;-80
2023/09/15 13:59:13;;;;;;;6.50;2.90;;;;;;;;;;4918413;29;20518;-80
2023/09/15 14:01:44;;;;;;;5.45;2.40;;;;;;;;;;4918741;29;20376;-80
2023/09/15 14:04:17;;;;;;;6.32;2.88;;;;;;;;;;4919044;29;20411;-78
2023/09/15 14:06:50;;;;;;;5.18;2.47;;;;;;;;;;4918475;29;20055;-79
2023/09/15 14:09:20;;;;;;;4.53;2.10;;;;;;;;;;4901691;29;20514;-80
2023/09/15 14:11:50;;;;;;;6.60;2.13;;;;;;;;;;4917499;29;20044;-80
2023/09/15 14:14:21;;;;;;;4.82;2.20;;;;;;;;;;4902213;29;20057;-80
2023/09/15 14:16:51;;;;;;;4.15;2.13;;;;;;;;;;4918017;29;20495;-80
2023/09/15 14:19:25;;;;;;;5.53;2.17;;;;;;;;;;4918425;29;20044;-88
2023/09/15 14:21:57;;;;;;;3.75;1.80;;;;;;;;;;4901628;29;20070;-82
2023/09/15 14:24:30;;;;;;;6.57;1.70;;;;;;;;;;4918618;29;20056;-84
2023/09/15 14:27:01;;;;;;;5.63;1.70;;;;;;;;;;4918796;29;20044;-84
2023/09/15 14:29:36;;;;;;;4.32;2.00;;;;;;;;;;4918443;29;20059;-84
2023/09/15 14:32:10;;;;;;;4.38;1.85;;;;;;;;;;4901232;29;20086;-84
2023/09/15 14:34:42;;;;;;;4.68;2.25;;;;;;;;;;4918487;29;20407;-84
2023/09/15 14:37:16;;;;;;;5.60;1.77;;;;;;;;;;4918100;29;20056;-85
2023/09/15 14:39:47;;;;;;;5.65;1.70;;;;;;;;;;4918527;29;20048;-83
2023/09/15 14:42:21;;;;;;;7.13;1.85;;;;;;;;;;4900501;29;20056;-82
2023/09/15 14:44:51;;;;;;;4.75;1.40;;;;;;;;;;4918149;29;20047;-83
2023/09/15 14:47:25;;;;;;;9.55;1.50;;;;;;;;;;4918250;29;20048;-82
2023/09/15 14:49:57;;;;;;;4.03;1.50;;;;;;;;;;4918207;29;20523;-82
2023/09/15 14:52:30;;;;;;;2.90;1.15;;;;;;;;;;4901626;29;20059;-85
2023/09/15 14:55:01;;;;;;;2.97;1.00;;;;;;;;;;4901723;29;20048;-84
2023/09/15 14:57:30;;;;;;;3.05;1.00;;;;;;;;;;4918245;29;20056;-83
2023/09/15 15:00:03;;;;;;;3.40;1.10;;;;;;;;;;4901309;29;20044;-83
2023/09/15 15:02:37;;;;;;;3.35;1.13;;;;;;;;;;4901811;29;20048;-84
2023/09/15 15:05:08;;;;;;;2.05;1.10;;;;;;;;;;4883410;29;20051;-84
2023/09/15 15:07:38;;;;;;;2.50;1.38;;;;;;;;;;4917056;29;20052;-83
2023/09/15 15:10:09;;;;;;;6.18;1.23;;;;;;;;;;4916996;29;20052;-85
2023/09/15 15:12:41;;;;;;;3.45;1.00;;;;;;;;;;4917368;29;20504;-80
2023/09/15 15:15:18;;;;;;;4.63;1.45;;;;;;;;;;4916738;29;20051;-82
2023/09/15 15:17:48;;;;;;;2.25;1.25;;;;;;;;;;4916907;29;20059;-82
2023/09/15 15:20:22;;;;;;;4.05;1.38;;;;;;;;;;4916537;29;20071;-82
2023/09/15 15:22:54;;;;;;;6.00;0.80;;;;;;;;;;4900082;29;20056;-84
2023/09/15 15:25:24;;;;;;;4.20;1.20;;;;;;;;;;4916591;29;20052;-84
2023/09/15 15:27:55;;;;;;;2.05;0.75;;;;;;;;;;4900412;29;20056;-83
2023/09/15 15:30:32;;;;;;;4.20;0.90;;;;;;;;;;4913640;29;20059;-82
2023/09/15 15:33:04;;;;;;;1.33;0.70;;;;;;;;;;4915914;29;20048;-84
2023/09/15 15:35:36;;;;;;;1.50;0.60;;;;;;;;;;4915837;29;20059;-82
2023/09/15 15:38:05;;;;;;;1.67;0.85;;;;;;;;;;4917464;29;20407;-82
2023/09/15 15:40:39;;;;;;;2.10;0.98;;;;;;;;;;4914959;29;20048;-84
2023/09/15 15:46:09;;;;;;;3.83;0.70;;;;;;;;;;4915524;29;20052;-83
2023/09/15 15:48:40;;;;;;;2.45;0.80;;;;;;;;;;4900901;29;20056;-82
2023/09/15 15:51:10;;;;;;;0.75;0.50;;;;;;;;;;4917824;29;20040;-85
2023/09/15 15:53:40;;;;;;;2.38;0.85;;;;;;;;;;4916437;29;20403;-84
2023/09/15 15:56:15;;;;;;;2.20;0.60;;;;;;;;;;4917047;29;20043;-84
2023/09/15 15:58:47;;;;;;;1.10;0.50;;;;;;;;;;4917179;29;20071;-84
2023/09/15 16:01:27;;;;;;;1.88;0.50;;;;;;;;;;4917460;29;20063;-83
2023/09/15 16:04:00;;;;;;;1.65;0.60;;;;;;;;;;4915106;29;20048;-84
2023/09/15 16:06:32;;;;;;;2.42;0.50;;;;;;;;;;4916877;29;20040;-83
2023/09/15 16:09:02;;;;;;;;;;;;;;;;;;4917173;29;20113;-84
2023/09/15 16:11:32;;;;;;;1.33;0.68;;;;;;;;;;4916513;29;19923;-82
2023/09/15 16:14:05;;;;;;;1.85;0.50;;;;;;;;;;4916948;29;20067;-84
2023/09/15 16:16:40;;;;;;;2.65;0.80;;;;;;;;;;4916703;29;20353;-82
2023/09/15 16:19:12;;;;;;;1.27;0.60;;;;;;;;;;4899174;29;20048;-85
2023/09/15 16:21:46;;;;;;;1.60;0.80;;;;;;;;;;4916663;29;20056;-85
2023/09/15 16:24:18;;;;;;;1.55;0.60;;;;;;;;;;4916128;29;20051;-84
2023/09/15 16:26:48;;;;;;;;;;;;;;;;;;4900774;29;20051;-84
2023/09/15 16:29:18;;;;;;;2.95;0.80;;;;;;;;;;4916761;29;19927;-86
2023/09/15 16:31:49;;;;;;;1.58;0.60;;;;;;;;;;4899052;29;20522;-83
2023/09/15 16:34:20;;;;;;;1.20;0.60;;;;;;;;;;4915564;29;20051;-85
2023/09/15 16:36:51;;;;;;;1.58;0.77;;;;;;;;;;4898969;29;20059;-85
2023/09/15 16:39:24;;;;;;;1.98;0.60;;;;;;;;;;4900355;29;20052;-85
2023/09/15 16:41:56;;;;;;;1.27;0.60;;;;;;;;;;4916440;29;20052;-82
2023/09/15 16:44:32;;;;;;;3.45;0.60;;;;;;;;;;4899180;29;20067;-84
2023/09/15 16:47:03;;;;;;;2.85;1.50;;;;;;;;;;4916296;29;20048;-81
2023/09/15 16:49:37;;;;;;;3.60;1.13;;;;;;;;;;4900341;29;20059;-85
2023/09/15 16:52:07;;;;;;;2.88;1.05;;;;;;;;;;4899261;29;20246;-82
2023/09/15 16:54:37;;;;;;;7.10;1.33;;;;;;;;;;4899172;29;20079;-85
2023/09/15 16:57:12;;;;;;;2.00;0.70;;;;;;;;;;4899636;29;20511;-84
2023/09/15 16:59:43;;;;;;;3.40;0.50;;;;;;;;;;4915115;29;20055;-83
2023/09/15 17:02:13;;;;;;;1.38;0.63;;;;;;;;;;4917035;29;20522;-84
2023/09/15 17:04:44;;;;;;;1.35;0.65;;;;;;;;;;4933869;29;20084;-83
2023/09/15 17:07:15;;;;;;;1.60;0.80;;;;;;;;;;4940187;29;20038;-84
2023/09/15 17:09:48;;;;;;;4.20;0.63;;;;;;;;;;4938716;29;20060;-83
2023/09/15 17:12:18;;;;;;;1.30;0.60;;;;;;;;;;4939890;29;20032;-84
2023/09/15 17:14:49;;;;;;;;;;;;;;;;;;4923796;29;20050;-85
2023/09/15 17:17:20;;;;;;;1.92;0.80;;;;;;;;;;4908250;29;19933;-87
2023/09/15 17:19:53;;;;;;;1.73;0.73;;;;;;;;;;4938980;29;20040;-87
2023/09/15 17:22:23;;;;;;;4.53;1.00;;;;;;;;;;4901935;29;20059;-86
2023/09/15 17:24:54;;;;;;;2.42;0.80;;;;;;;;;;4898617;29;20441;-89
2023/09/15 17:27:27;;;;;;;1.88;0.73;;;;;;;;;;4900390;29;20048;-85
2023/09/15 17:29:58;;;;;;;2.38;0.93;;;;;;;;;;4899156;29;20415;-85
2023/09/15 17:32:30;;;;;;;1.70;0.75;;;;;;;;;;4898916;29;20063;-84
2023/09/15 17:35:00;;;;;;;2.88;0.98;;;;;;;;;;4899194;29;20426;-84
2023/09/15 17:37:34;;;;;;;1.50;0.82;;;;;;;;;;4899371;29;20115;-84
2023/09/15 17:40:10;;;;;;;2.03;1.02;;;;;;;;;;4916382;29;20394;-84
2023/09/15 17:42:48;;;;;;;1.50;0.60;;;;;;;;;;4915754;29;20044;-84
2023/09/15 17:45:23;;;;;;;1.77;0.77;;;;;;;;;;4915053;29;20058;-85
2023/09/15 17:47:54;;;;;;;3.65;0.90;;;;;;;;;;4918442;29;20487;-87
2023/09/15 17:50:26;;;;;;;1.33;0.88;;;;;;;;;;4917445;29;20059;-85
2023/09/15 17:52:57;;;;;;;1.38;0.60;;;;;;;;;;4902329;29;20055;-86
2023/09/15 17:55:31;;;;;;;2.20;0.60;;;;;;;;;;4919564;29;20044;-85
2023/09/15 17:58:04;;;;;;;6.47;1.00;;;;;;;;;;4901950;29;20048;-86
2023/09/15 18:00:38;;;;;;;3.47;0.80;;;;;;;;;;4918660;29;20044;-87
2023/09/15 18:03:08;;;;;;;2.97;1.05;;;;;;;;;;4902202;29;20064;-83
